Time;durP1;ratioP1;P1;durP2;ratioP2;P2;SDS_P1;SDS_P2;PMS_P1;PMS_P2;Temp;Humidity;BMP_temperature;BMP_pressure;BME280_temperature;BME280_humidity;BME280_pressure;Samples;Min_cycle;Max_cycle;Signal;HPM_P1;HPM_P2
2022/08/14 00:01:09;;;;;;;6.78;4.40;;;23.80;99.90;;;;;;5094934;28;20051;-74
2022/08/14 00:03:36;;;;;;;7.45;4.32;;;23.80;99.90;;;;;;5094742;28;20078;-74
2022/08/14 00:06:03;;;;;;;8.55;4.60;;;23.70;99.90;;;;;;5094865;28;20096;-74
2022/08/14 00:08:29;;;;;;;7.47;4.15;;;23.70;99.90;;;;;;5095157;28;20048;-74
2022/08/14 00:10:54;;;;;;;7.57;4.70;;;23.60;99.90;;;;;;5076492;28;20089;-74
2022/08/14 00:13:23;;;;;;;9.32;4.93;;;23.70;99.90;;;;;;5094753;28;20039;-74
2022/08/14 00:15:50;;;;;;;9.82;4.53;;;23.60;99.90;;;;;;5094753;28;20040;-74
2022/08/14 00:18:20;;;;;;;6.97;4.70;;;23.60;99.90;;;;;;5094746;28;20521;-75
2022/08/14 00:20:46;;;;;;;6.80;4.75;;;23.50;99.90;;;;;;5094650;28;20040;-74
2022/08/14 00:23:14;;;;;;;9.73;5.32;;;23.50;99.90;;;;;;5094572;28;20036;-74
2022/08/14 00:25:42;;;;;;;11.15;5.20;;;23.40;99.90;;;;;;5094404;28;20093;-74
2022/08/14 00:28:09;;;;;;;7.50;5.07;;;23.40;99.90;;;;;;5094401;28;20055;-74
2022/08/14 00:30:36;;;;;;;6.95;4.88;;;23.40;99.90;;;;;;5093848;28;20086;-74
2022/08/14 00:33:03;;;;;;;8.40;5.00;;;23.40;99.90;;;;;;5076559;28;20377;-74
2022/08/14 00:35:30;;;;;;;8.27;5.55;;;23.30;99.90;;;;;;5094232;28;20093;-74
2022/08/14 00:37:55;;;;;;;6.82;4.80;;;23.30;99.90;;;;;;5110293;28;20430;-74
2022/08/14 00:40:21;;;;;;;12.60;5.70;;;23.30;99.90;;;;;;5094086;28;20093;-74
2022/08/14 00:42:48;;;;;;;6.60;5.20;;;23.10;99.90;;;;;;5059487;28;20127;-74
2022/08/14 00:45:15;;;;;;;8.60;5.40;;;23.10;99.90;;;;;;5094333;28;20105;-75
2022/08/14 00:47:45;;;;;;;8.88;5.80;;;23.10;99.90;;;;;;5094153;28;20066;-74
2022/08/14 00:50:16;;;;;;;10.93;5.85;;;23.10;99.90;;;;;;5094356;28;20055;-74
2022/08/14 00:52:44;;;;;;;10.82;5.82;;;23.10;99.90;;;;;;5093972;28;20040;-74
2022/08/14 00:55:10;;;;;;;7.82;5.30;;;23.00;99.90;;;;;;5094123;28;20048;-74
2022/08/14 00:57:36;;;;;;;8.57;5.90;;;23.00;99.90;;;;;;5093783;28;20044;-74
2022/08/14 01:00:13;;;;;;;9.70;5.75;;;23.00;99.90;;;;;;5094097;28;20127;-74
2022/08/14 01:02:42;;;;;;;11.65;5.78;;;23.10;99.90;;;;;;5093915;28;20097;-76
2022/08/14 01:05:22;;;;;;;10.82;6.35;;;23.00;99.90;;;;;;5075569;28;20044;-74
2022/08/14 01:07:56;;;;;;;12.05;6.03;;;23.10;99.90;;;;;;5093733;28;20433;-74
2022/08/14 01:10:49;;;;;;;10.45;6.15;;;23.00;99.90;;;;;;5093873;28;20066;-74
2022/08/14 01:13:13;;;;;;;8.45;5.85;;;23.00;99.90;;;;;;5093660;28;20149;-74
2022/08/14 01:15:38;;;;;;;8.63;5.93;;;22.90;99.90;;;;;;5092553;28;20060;-74
2022/08/14 01:21:10;;;;;;;9.57;6.60;;;23.10;99.90;;;;;;5093292;28;20048;-74
2022/08/14 01:23:39;;;;;;;8.95;6.43;;;22.90;99.90;;;;;;5093699;28;20089;-74
2022/08/14 01:26:06;;;;;;;8.20;5.80;;;22.80;99.90;;;;;;5093440;28;20134;-74
2022/08/14 01:28:36;;;;;;;11.07;6.20;;;22.80;99.90;;;;;;5093614;28;20043;-74
2022/08/14 01:31:07;;;;;;;9.60;6.55;;;22.90;99.90;;;;;;5093441;28;20039;-74
2022/08/14 01:33:39;;;;;;;8.75;6.30;;;22.80;99.90;;;;;;5075040;28;20063;-74
2022/08/14 01:36:06;;;;;;;9.65;6.07;;;22.80;99.90;;;;;;5093243;28;20211;-74
2022/08/14 01:38:35;;;;;;;8.02;6.45;;;22.80;99.90;;;;;;5092879;28;20044;-74
2022/08/14 01:41:03;;;;;;;12.43;6.45;;;22.80;99.90;;;;;;5093170;28;20047;-74
2022/08/14 01:43:29;;;;;;;9.95;6.97;;;22.70;99.90;;;;;;5092567;28;20035;-74
2022/08/14 01:45:59;;;;;;;11.63;6.63;;;22.80;99.90;;;;;;5093098;28;20374;-74
2022/08/14 01:48:29;;;;;;;9.30;6.30;;;22.70;99.90;;;;;;5093237;28;20059;-74
2022/08/14 01:50:55;;;;;;;8.45;6.30;;;22.70;99.90;;;;;;5109060;28;20433;-74
2022/08/14 01:53:21;;;;;;;8.18;6.45;;;22.70;99.90;;;;;;5093042;28;20093;-74
2022/08/14 01:55:50;;;;;;;7.40;6.53;;;22.70;99.90;;;;;;5092911;28;20040;-74
2022/08/14 01:58:17;;;;;;;11.02;7.32;;;22.70;99.90;;;;;;5092904;28;20130;-75
2022/08/14 02:00:43;;;;;;;9.27;6.68;;;22.70;99.90;;;;;;5092700;28;20043;-74
2022/08/14 02:03:08;;;;;;;10.55;6.40;;;22.70;99.90;;;;;;5092686;28;20127;-74
2022/08/14 02:05:35;;;;;;;10.50;7.20;;;22.70;99.90;;;;;;5091254;28;20123;-74
2022/08/14 02:08:01;;;;;;;9.70;7.22;;;22.70;99.90;;;;;;5092897;28;20488;-74
2022/08/14 02:10:27;;;;;;;11.27;7.30;;;22.60;99.90;;;;;;5092894;28;20036;-74
2022/08/14 02:12:55;;;;;;;11.70;7.13;;;22.70;99.90;;;;;;5092643;28;20040;-74
2022/08/14 02:15:22;;;;;;;8.48;6.95;;;22.60;99.90;;;;;;5092938;28;20097;-74
2022/08/14 02:17:48;;;;;;;12.10;7.63;;;22.60;99.90;;;;;;5092970;28;20040;-74
2022/08/14 02:20:16;;;;;;;10.55;7.32;;;22.60;99.90;;;;;;5074617;28;20051;-74
2022/08/14 02:22:42;;;;;;;10.02;6.93;;;22.50;99.90;;;;;;5091759;28;20059;-74
2022/08/14 02:25:09;;;;;;;12.55;6.97;;;22.50;99.90;;;;;;5092331;28;20044;-74
2022/08/14 02:27:36;;;;;;;10.23;7.45;;;22.50;99.90;;;;;;5092577;28;20492;-74
2022/08/14 02:30:02;;;;;;;10.23;7.45;;;22.50;99.90;;;;;;5092595;28;20756;-74
2022/08/14 02:32:33;;;;;;;12.13;7.13;;;22.50;99.90;;;;;;5092516;28;20101;-74
2022/08/14 02:34:59;;;;;;;10.20;7.50;;;22.40;99.90;;;;;;5092683;28;20084;-74
2022/08/14 02:37:25;;;;;;;8.90;7.03;;;22.40;99.90;;;;;;5092613;28;20087;-74
2022/08/14 02:39:50;;;;;;;9.93;7.53;;;22.40;99.90;;;;;;5100655;28;20436;-74
2022/08/14 02:42:20;;;;;;;11.90;7.50;;;22.70;99.90;;;;;;5106483;28;20046;-74
2022/08/14 02:44:46;;;;;;;10.30;8.23;;;22.30;99.90;;;;;;5092345;28;20119;-74
2022/08/14 02:47:12;;;;;;;10.30;7.85;;;22.30;99.90;;;;;;5092705;28;20130;-74
2022/08/14 02:49:38;;;;;;;11.02;7.95;;;22.30;99.90;;;;;;5074984;28;20098;-74
2022/08/14 02:52:06;;;;;;;10.75;7.78;;;22.30;99.90;;;;;;5092523;28;20044;-74
2022/08/14 02:54:33;;;;;;;10.18;7.75;;;22.20;99.90;;;;;;5076316;28;20040;-74
2022/08/14 02:56:59;;;;;;;12.25;7.93;;;22.40;99.90;;;;;;5096181;28;20115;-74
2022/08/14 02:59:28;;;;;;;13.98;8.55;;;22.20;99.90;;;;;;5096060;28;20079;-74
2022/08/14 03:01:56;;;;;;;9.73;7.35;;;22.10;99.90;;;;;;5096486;28;20044;-74
2022/08/14 03:04:23;;;;;;;9.93;8.15;;;22.10;99.90;;;;;;5096221;28;20054;-74
2022/08/14 03:06:49;;;;;;;10.27;7.70;;;22.10;99.90;;;;;;5078135;28;20052;-74
2022/08/14 03:09:15;;;;;;;9.45;8.23;;;22.10;99.90;;;;;;5095965;28;20048;-73
2022/08/14 03:11:43;;;;;;;9.13;8.00;;;22.10;99.90;;;;;;5096106;28;20036;-74
2022/08/14 03:14:10;;;;;;;8.98;8.07;;;22.00;99.90;;;;;;5095730;28;20048;-74
2022/08/14 03:16:37;;;;;;;11.20;8.00;;;22.00;99.90;;;;;;5095733;28;20047;-74
2022/08/14 03:19:06;;;;;;;10.63;8.18;;;21.90;99.90;;;;;;5095685;28;20047;-74
2022/08/14 03:21:32;;;;;;;10.68;7.65;;;22.20;99.90;;;;;;5095799;28;20051;-74
2022/08/14 03:24:10;;;;;;;12.18;7.70;;;21.90;99.90;;;;;;5095541;28;20087;-74
2022/08/14 03:26:38;;;;;;;9.82;8.80;;;21.90;99.90;;;;;;5095522;28;20476;-74
2022/08/14 03:29:05;;;;;;;11.77;8.45;;;21.80;99.90;;;;;;5095987;28;20050;-73
2022/08/14 03:31:31;;;;;;;11.07;8.15;;;22.00;99.90;;;;;;5077495;28;20067;-74
2022/08/14 03:33:58;;;;;;;9.57;8.60;;;22.00;99.90;;;;;;5095349;28;20446;-74
2022/08/14 03:36:24;;;;;;;9.57;8.43;;;21.80;99.90;;;;;;5095499;28;20400;-73
2022/08/14 03:38:54;;;;;;;10.07;7.88;;;21.80;99.90;;;;;;5093916;28;20452;-73
2022/08/14 03:41:25;;;;;;;11.32;8.60;;;21.70;99.90;;;;;;5095313;28;20040;-74
2022/08/14 03:44:00;;;;;;;11.00;8.32;;;21.80;99.90;;;;;;5095059;28;20052;-74
2022/08/14 03:46:31;;;;;;;12.00;8.65;;;21.80;99.90;;;;;;5095158;28;20123;-74
2022/08/14 03:48:59;;;;;;;10.88;8.48;;;21.80;99.90;;;;;;5095486;28;20433;-74
2022/08/14 03:51:27;;;;;;;9.65;8.07;;;21.70;99.90;;;;;;5094877;28;20051;-73
2022/08/14 03:53:55;;;;;;;9.88;8.80;;;21.70;99.90;;;;;;5094864;28;20044;-73
2022/08/14 03:56:22;;;;;;;13.52;8.68;;;21.60;99.90;;;;;;5095186;28;20052;-74
2022/08/14 03:58:50;;;;;;;12.27;8.68;;;21.70;99.90;;;;;;5095112;28;20050;-74
2022/08/14 04:01:18;;;;;;;11.90;8.30;;;21.70;99.90;;;;;;5095042;28;20084;-73
2022/08/14 04:03:46;;;;;;;9.32;8.20;;;21.70;99.90;;;;;;5094864;28;20116;-73
2022/08/14 04:06:12;;;;;;;10.27;8.52;;;21.70;99.90;;;;;;5094070;28;20115;-74
2022/08/14 04:08:38;;;;;;;9.90;8.88;;;21.60;99.90;;;;;;5060375;28;20091;-75
2022/08/14 04:11:06;;;;;;;9.48;8.38;;;21.60;99.90;;;;;;5094606;28;20530;-74
2022/08/14 04:13:34;;;;;;;11.85;8.55;;;21.60;99.90;;;;;;5095242;28;20032;-73
2022/08/14 04:16:01;;;;;;;9.80;8.43;;;21.50;99.90;;;;;;5094073;28;20495;-74
2022/08/14 04:18:28;;;;;;;11.55;8.93;;;21.50;99.90;;;;;;5094274;28;20039;-73
2022/08/14 04:20:56;;;;;;;11.43;8.90;;;21.50;99.90;;;;;;5076474;28;20048;-74
2022/08/14 04:23:23;;;;;;;10.52;8.43;;;21.40;99.90;;;;;;5094775;28;20040;-74
2022/08/14 04:25:52;;;;;;;14.48;8.60;;;21.40;99.90;;;;;;5094623;28;20066;-73
2022/08/14 04:28:18;;;;;;;9.82;8.82;;;21.40;99.90;;;;;;5095020;28;20044;-73
2022/08/14 04:30:44;;;;;;;11.80;8.07;;;21.40;99.90;;;;;;5094741;28;20043;-74
2022/08/14 04:33:10;;;;;;;11.88;9.20;;;21.50;99.90;;;;;;5093597;28;20437;-73
2022/08/14 04:35:37;;;;;;;9.95;8.93;;;21.50;99.90;;;;;;5094061;28;20040;-74
2022/08/14 04:43:40;;;;;;;11.77;9.15;;;21.40;99.90;;;;;;5094085;28;20072;-74
2022/08/14 04:46:08;;;;;;;15.57;9.13;;;21.40;99.90;;;;;;5094394;28;20047;-74
2022/08/14 04:48:35;;;;;;;11.13;9.18;;;21.40;99.90;;;;;;5094362;28;20430;-74
2022/08/14 04:51:06;;;;;;;10.65;8.80;;;21.40;99.90;;;;;;5094027;28;20443;-73
2022/08/14 04:53:33;;;;;;;9.50;8.43;;;21.40;99.90;;;;;;5092083;28;20066;-74
2022/08/14 04:55:59;;;;;;;12.02;8.40;;;21.40;99.90;;;;;;5093628;28;20040;-73
2022/08/14 04:58:30;;;;;;;12.48;9.20;;;21.40;99.90;;;;;;5094393;28;20116;-74
2022/08/14 05:00:57;;;;;;;10.57;8.63;;;21.40;99.90;;;;;;5059278;28;20052;-74
2022/08/14 05:03:30;;;;;;;10.35;9.18;;;21.40;99.90;;;;;;5093968;28;20468;-74
2022/08/14 05:05:58;;;;;;;13.75;9.30;;;21.50;99.90;;;;;;5094393;28;20389;-74
2022/08/14 05:08:24;;;;;;;11.02;8.88;;;21.50;99.90;;;;;;5076205;28;20048;-74
2022/08/14 05:10:55;;;;;;;12.02;9.50;;;21.40;99.90;;;;;;5093963;28;20046;-75
2022/08/14 05:13:22;;;;;;;12.35;9.40;;;21.50;99.90;;;;;;5094182;28;20063;-74
2022/08/14 05:15:51;;;;;;;12.80;8.88;;;21.50;99.90;;;;;;5093701;28;20044;-74
2022/08/14 05:18:20;;;;;;;10.13;9.13;;;21.50;99.90;;;;;;5094190;28;20044;-74
2022/08/14 05:20:49;;;;;;;13.40;9.27;;;21.40;99.90;;;;;;5093864;28;20464;-74
2022/08/14 05:23:20;;;;;;;12.45;9.10;;;21.50;99.90;;;;;;5075732;28;20400;-74
2022/08/14 05:25:47;;;;;;;11.07;8.95;;;21.50;99.90;;;;;;5093468;28;20446;-74
2022/08/14 05:28:20;;;;;;;11.43;8.63;;;21.50;99.90;;;;;;5093608;28;20044;-74
2022/08/14 05:30:46;;;;;;;16.60;9.23;;;21.60;99.90;;;;;;5093481;28;20516;-74
2022/08/14 05:33:17;;;;;;;10.98;8.95;;;21.60;99.90;;;;;;5075333;28;20412;-74
2022/08/14 05:35:44;;;;;;;10.13;8.35;;;21.60;99.90;;;;;;5093394;28;20066;-74
2022/08/14 05:38:12;;;;;;;10.35;8.60;;;21.60;99.90;;;;;;5093489;28;20463;-74
2022/08/14 05:40:46;;;;;;;13.27;8.65;;;21.60;99.90;;;;;;5073907;28;20043;-74
2022/08/14 05:43:12;;;;;;;9.10;7.75;;;21.60;99.90;;;;;;5093344;28;20036;-74
2022/08/14 05:45:38;;;;;;;11.25;7.85;;;21.70;99.90;;;;;;5093100;28;20066;-74
2022/08/14 05:48:05;;;;;;;10.73;7.93;;;21.70;99.90;;;;;;5093526;28;20051;-74
2022/08/14 05:50:33;;;;;;;10.90;8.10;;;21.80;99.90;;;;;;5091476;28;20115;-74
2022/08/14 05:52:59;;;;;;;10.15;7.93;;;21.80;99.90;;;;;;5092888;28;20040;-74
2022/08/14 05:55:25;;;;;;;12.68;8.02;;;21.90;99.90;;;;;;5093112;28;20039;-74
2022/08/14 05:57:57;;;;;;;11.80;7.45;;;22.00;99.90;;;;;;5093034;28;20423;-74
2022/08/14 06:00:26;;;;;;;8.80;7.30;;;22.10;99.90;;;;;;5093385;28;20079;-74
2022/08/14 06:02:52;;;;;;;11.02;7.60;;;22.10;99.90;;;;;;5093154;28;20089;-74
2022/08/14 06:05:18;;;;;;;13.05;8.15;;;22.20;99.90;;;;;;5092985;28;20047;-74
2022/08/14 06:07:44;;;;;;;8.60;7.70;;;22.20;99.90;;;;;;5093136;28;20381;-74
2022/08/14 06:10:10;;;;;;;12.05;8.00;;;22.20;99.90;;;;;;5113424;28;20119;-74
2022/08/14 06:12:37;;;;;;;11.43;8.10;;;22.30;99.90;;;;;;5104262;28;20044;-74
2022/08/14 06:15:04;;;;;;;9.70;8.35;;;22.30;99.90;;;;;;5093131;28;20072;-74
2022/08/14 06:17:30;;;;;;;11.77;8.18;;;22.30;99.90;;;;;;5075093;28;20047;-74
2022/08/14 06:19:56;;;;;;;13.20;8.05;;;22.40;99.90;;;;;;5108775;28;20404;-74
2022/08/14 06:22:21;;;;;;;10.32;8.20;;;22.40;99.90;;;;;;5092954;28;20040;-74
2022/08/14 06:24:47;;;;;;;10.30;7.80;;;22.50;99.90;;;;;;5091605;28;20127;-74
2022/08/14 06:27:13;;;;;;;9.90;7.82;;;22.60;99.90;;;;;;5092772;28;20040;-74
2022/08/14 06:29:38;;;;;;;10.68;7.45;;;22.60;99.90;;;;;;5094965;28;20450;-74
2022/08/14 06:32:04;;;;;;;11.10;7.78;;;22.70;99.90;;;;;;5112700;28;20066;-74
2022/08/14 06:34:30;;;;;;;11.38;7.60;;;22.80;99.90;;;;;;5096481;28;20131;-74
2022/08/14 06:36:56;;;;;;;10.35;7.90;;;22.80;99.90;;;;;;5096775;28;20059;-74
2022/08/14 06:39:22;;;;;;;10.65;8.25;;;22.90;99.90;;;;;;5103900;28;20504;-74
2022/08/14 06:41:49;;;;;;;9.57;7.45;;;23.00;99.90;;;;;;5116971;28;20389;-74
2022/08/14 06:44:16;;;;;;;14.98;8.07;;;23.00;99.90;;;;;;5117259;28;20073;-75
2022/08/14 06:46:42;;;;;;;10.38;8.40;;;23.00;99.90;;;;;;5117047;28;20082;-73
2022/08/14 06:49:07;;;;;;;11.60;8.20;;;23.10;99.90;;;;;;5099236;28;20125;-73
2022/08/14 06:51:34;;;;;;;10.93;8.13;;;23.20;99.90;;;;;;5116854;28;20039;-73
2022/08/14 06:54:00;;;;;;;10.50;8.38;;;23.20;99.90;;;;;;5098481;28;20050;-74
2022/08/14 06:56:26;;;;;;;10.20;7.90;;;23.20;99.90;;;;;;5116859;28;20083;-75
2022/08/14 06:58:51;;;;;;;14.27;8.70;;;23.30;99.90;;;;;;5098905;28;20043;-75
2022/08/14 07:06:45;;;;;;;10.25;7.53;;;23.50;99.90;;;;;;5098048;28;20047;-75
2022/08/14 07:09:11;;;;;;;10.85;7.95;;;23.50;99.90;;;;;;5116580;28;20066;-75
2022/08/14 07:11:37;;;;;;;9.60;7.63;;;23.60;99.90;;;;;;5115661;28;20388;-75
2022/08/14 07:14:03;;;;;;;12.95;8.48;;;23.70;99.90;;;;;;5096095;28;20048;-75
2022/08/14 07:16:29;;;;;;;8.75;7.60;;;23.70;99.90;;;;;;5096101;28;20050;-75
2022/08/14 07:18:55;;;;;;;12.52;8.35;;;23.80;99.90;;;;;;5096011;28;20127;-76
2022/08/14 07:21:21;;;;;;;8.68;7.75;;;23.70;99.90;;;;;;5095683;28;20128;-75
2022/08/14 07:23:46;;;;;;;9.32;7.80;;;23.80;99.90;;;;;;5095520;28;20476;-75
2022/08/14 07:26:12;;;;;;;12.63;7.53;;;23.80;99.90;;;;;;5095767;28;20130;-75
2022/08/14 07:28:39;;;;;;;8.73;7.38;;;23.90;99.90;;;;;;5094318;28;20087;-76
2022/08/14 07:31:07;;;;;;;11.38;7.57;;;24.10;99.90;;;;;;5076904;28;20097;-76
2022/08/14 07:33:39;;;;;;;9.70;7.40;;;24.10;99.90;;;;;;5094933;28;20086;-76
2022/08/14 07:36:09;;;;;;;8.93;6.90;;;24.20;99.90;;;;;;5095402;28;20395;-75
2022/08/14 07:38:35;;;;;;;10.48;7.53;;;24.30;99.90;;;;;;5095413;28;20066;-75
2022/08/14 07:41:04;;;;;;;9.80;6.55;;;24.30;99.90;;;;;;5094126;28;20480;-76
2022/08/14 07:43:29;;;;;;;10.88;7.28;;;24.30;99.90;;;;;;5095557;28;20399;-75
2022/08/14 07:45:55;;;;;;;11.48;7.85;;;24.50;99.90;;;;;;5095324;28;20051;-75
2022/08/14 07:48:21;;;;;;;8.68;6.97;;;24.50;99.90;;;;;;5095385;28;20040;-74
2022/08/14 07:50:49;;;;;;;10.52;7.20;;;24.60;99.90;;;;;;5095036;28;20036;-74
2022/08/14 07:53:16;;;;;;;10.45;6.88;;;24.70;99.90;;;;;;5095242;28;20496;-73
2022/08/14 07:55:42;;;;;;;10.40;6.55;;;24.80;99.90;;;;;;5110918;28;20483;-75
2022/08/14 07:58:08;;;;;;;9.50;7.18;;;24.90;99.90;;;;;;5095253;28;20047;-74
2022/08/14 08:00:33;;;;;;;10.02;7.10;;;25.00;99.90;;;;;;5094925;28;20105;-74
2022/08/14 08:02:59;;;;;;;10.70;6.88;;;24.90;99.90;;;;;;5095217;28;20032;-74
2022/08/14 08:05:26;;;;;;;9.55;6.32;;;25.00;99.90;;;;;;5095034;28;20044;-75
2022/08/14 08:07:52;;;;;;;9.40;6.40;;;25.10;99.90;;;;;;5094822;28;20050;-75
2022/08/14 08:10:31;;;;;;;9.23;7.05;;;25.30;99.90;;;;;;5093188;28;20079;-75
2022/08/14 08:13:01;;;;;;;9.23;6.20;;;25.30;99.90;;;;;;5094885;28;20040;-75
2022/08/14 08:15:30;;;;;;;11.20;6.38;;;25.50;99.90;;;;;;5094679;28;20083;-74
2022/08/14 08:17:55;;;;;;;9.50;6.13;;;25.50;99.90;;;;;;5094986;28;20048;-74
2022/08/14 08:20:27;;;;;;;9.10;6.15;;;25.50;99.90;;;;;;5094686;28;20101;-74
2022/08/14 08:22:55;;;;;;;9.32;6.18;;;25.60;99.90;;;;;;5074980;28;20090;-74
2022/08/14 08:25:21;;;;;;;11.32;5.95;;;25.70;99.90;;;;;;5093044;28;20042;-75
2022/08/14 08:27:58;;;;;;;8.45;5.40;;;25.80;99.90;;;;;;5094335;28;20051;-74
2022/08/14 08:30:24;;;;;;;9.75;5.80;;;25.90;99.90;;;;;;5076412;28;20066;-75
2022/08/14 08:32:51;;;;;;;9.27;6.15;;;26.00;99.90;;;;;;5076364;28;20048;-74
2022/08/14 08:35:22;;;;;;;6.25;5.22;;;26.10;99.90;;;;;;5094582;28;20052;-75
2022/08/14 08:37:49;;;;;;;8.90;5.78;;;26.20;99.90;;;;;;5094642;28;20468;-75
2022/08/14 08:40:25;;;;;;;9.02;6.35;;;26.30;99.90;;;;;;5094325;28;20091;-75
2022/08/14 08:42:51;;;;;;;8.70;5.57;;;26.30;99.90;;;;;;5081067;28;20074;-76
2022/08/14 08:45:19;;;;;;;7.53;5.53;;;26.30;99.90;;;;;;5114466;28;20039;-76
2022/08/14 08:47:46;;;;;;;5.80;5.15;;;26.50;99.90;;;;;;5114715;28;20046;-74
2022/08/14 08:50:33;;;;;;;10.68;5.68;;;26.70;99.90;;;;;;5113698;28;20043;-75
2022/08/14 08:53:04;;;;;;;7.55;5.50;;;26.80;99.90;;;;;;5112265;28;20043;-74
2022/08/14 08:55:37;;;;;;;8.88;5.18;;;26.80;99.90;;;;;;5112753;28;20126;-74
2022/08/14 08:58:08;;;;;;;7.35;5.47;;;26.90;99.90;;;;;;5113003;28;20040;-74
2022/08/14 09:00:36;;;;;;;8.98;5.30;;;26.90;99.90;;;;;;5112262;28;20188;-74
2022/08/14 09:03:05;;;;;;;8.95;5.20;;;27.00;99.90;;;;;;5096039;28;20050;-74
2022/08/14 09:05:33;;;;;;;7.53;5.40;;;27.10;99.90;;;;;;5114189;28;20096;-74
2022/08/14 09:08:20;;;;;;;7.90;4.75;;;27.20;99.90;;;;;;5114302;28;20042;-75
2022/08/14 09:10:47;;;;;;;6.30;5.00;;;27.40;99.90;;;;;;5114081;28;20075;-73
2022/08/14 09:13:14;;;;;;;6.90;5.28;;;27.50;99.90;;;;;;5114079;28;20044;-76
2022/08/14 09:15:45;;;;;;;6.97;4.75;;;27.70;99.90;;;;;;5113912;28;20115;-74
2022/08/14 09:18:13;;;;;;;8.65;5.13;;;27.80;99.90;;;;;;5114096;28;20048;-75
2022/08/14 09:20:41;;;;;;;5.90;4.82;;;27.90;99.90;;;;;;5093402;28;20530;-76
2022/08/14 09:23:09;;;;;;;7.32;4.85;;;28.10;99.90;;;;;;5075197;28;20492;-75
2022/08/14 09:25:36;;;;;;;6.50;5.35;;;28.20;99.90;;;;;;5093299;28;20052;-76
2022/08/14 09:28:03;;;;;;;6.00;4.65;;;28.00;99.70;;;;;;5093951;28;20046;-76
2022/08/14 09:30:31;;;;;;;7.57;5.20;;;28.30;99.70;;;;;;5107162;28;20036;-76
2022/08/14 09:33:03;;;;;;;6.60;5.15;;;28.10;99.70;;;;;;5102949;28;20497;-76
2022/08/14 09:35:37;;;;;;;6.32;4.82;;;28.40;99.80;;;;;;5108855;28;20130;-73
2022/08/14 09:38:23;;;;;;;8.60;4.82;;;28.70;99.80;;;;;;5109141;28;20426;-74
2022/08/14 09:41:12;;;;;;;6.40;5.03;;;29.00;99.00;;;;;;5092564;28;20055;-76
2022/08/14 09:44:23;;;;;;;7.18;4.88;;;29.50;98.50;;;;;;5074630;28;20419;-75
2022/08/14 09:46:54;;;;;;;6.60;4.60;;;29.90;97.80;;;;;;5073456;28;20488;-76
2022/08/14 09:49:31;;;;;;;7.90;4.70;;;30.70;97.50;;;;;;5093018;28;20048;-76
2022/08/14 09:52:06;;;;;;;5.85;4.50;;;31.90;95.60;;;;;;5093355;28;20044;-75
2022/08/14 09:54:38;;;;;;;6.88;4.70;;;32.50;94.10;;;;;;5091359;28;20128;-76
2022/08/14 09:57:05;;;;;;;9.68;4.97;;;33.90;92.30;;;;;;5092500;28;20479;-76
2022/08/14 09:59:45;;;;;;;5.70;4.43;;;34.50;91.20;;;;;;5093057;28;20396;-74
2022/08/14 10:02:32;;;;;;;5.28;3.90;;;36.00;90.70;;;;;;5092618;28;20047;-74
2022/08/14 10:05:22;;;;;;;6.80;4.32;;;36.80;87.80;;;;;;5091161;28;20055;-75
2022/08/14 10:07:50;;;;;;;6.05;4.63;;;38.50;83.30;;;;;;5092881;28;20469;-75
2022/08/14 10:10:34;;;;;;;7.65;4.35;;;38.30;81.60;;;;;;5092836;28;20382;-75
2022/08/14 10:13:02;;;;;;;5.70;4.40;;;40.40;80.10;;;;;;5092858;28;20051;-75
2022/08/14 10:15:30;;;;;;;5.00;4.05;;;41.40;78.00;;;;;;5092961;28;20457;-75
2022/08/14 10:18:25;;;;;;;5.70;3.78;;;43.10;75.40;;;;;;5108380;28;20072;-75
2022/08/14 10:21:01;;;;;;;6.18;3.80;;;44.70;69.20;;;;;;5090256;28;20056;-75
2022/08/14 10:23:38;;;;;;;6.32;3.50;;;45.30;67.30;;;;;;5092510;28;20404;-76
2022/08/14 10:26:06;;;;;;;6.53;3.38;;;46.70;65.90;;;;;;5092644;28;20127;-75
2022/08/14 10:28:43;;;;;;;4.43;3.40;;;46.40;63.80;;;;;;5092631;28;20043;-75
2022/08/14 10:31:24;;;;;;;6.07;3.50;;;45.30;60.10;;;;;;5092605;28;20048;-75
2022/08/14 10:34:10;;;;;;;6.32;3.28;;;44.50;60.50;;;;;;5092623;28;20083;-76
2022/08/14 10:36:41;;;;;;;5.32;3.33;;;44.70;59.50;;;;;;5092390;28;20503;-75
2022/08/14 10:39:08;;;;;;;4.90;3.08;;;42.70;60.70;;;;;;5092652;28;20575;-75
2022/08/14 10:41:39;;;;;;;3.60;2.80;;;43.50;61.10;;;;;;5074126;28;20040;-75
2022/08/14 10:44:22;;;;;;;8.10;3.83;;;42.40;60.10;;;;;;5092470;28;20126;-75
2022/08/14 10:46:54;;;;;;;4.13;3.45;;;41.50;60.60;;;;;;5092777;28;20052;-75
2022/08/14 10:49:22;;;;;;;4.07;2.92;;;41.50;61.10;;;;;;5092316;28;20119;-76
2022/08/14 10:52:21;;;;;;;4.45;3.13;;;43.50;61.20;;;;;;5092394;28;20059;-75
2022/08/14 10:54:47;;;;;;;4.45;3.08;;;42.10;60.00;;;;;;5058958;28;20056;-75
2022/08/14 10:57:20;;;;;;;6.22;3.33;;;42.70;60.30;;;;;;5092610;28;20036;-75
2022/08/14 10:59:54;;;;;;;4.03;2.83;;;42.30;60.90;;;;;;5092536;28;20368;-75
2022/08/14 11:02:28;;;;;;;3.45;2.70;;;42.00;61.00;;;;;;5091970;28;20078;-75
2022/08/14 11:05:05;;;;;;;6.00;2.90;;;41.10;61.70;;;;;;5092636;28;20127;-75
2022/08/14 11:07:31;;;;;;;4.75;3.10;;;40.80;61.70;;;;;;5092353;28;20040;-75
2022/08/14 11:10:09;;;;;;;5.60;3.10;;;41.30;62.90;;;;;;5092321;28;20056;-75
2022/08/14 11:12:46;;;;;;;4.90;3.15;;;39.20;63.60;;;;;;5107694;28;20044;-75
2022/08/14 11:15:19;;;;;;;3.88;2.90;;;39.30;64.00;;;;;;5075147;28;20096;-75
2022/08/14 11:17:47;;;;;;;13.25;3.35;;;40.60;63.90;;;;;;5096031;28;20040;-75
2022/08/14 11:20:14;;;;;;;6.78;3.47;;;41.10;63.00;;;;;;5095857;28;20082;-75
2022/08/14 11:22:41;;;;;;;4.85;3.20;;;41.10;62.50;;;;;;5096236;28;20249;-75
2022/08/14 11:25:10;;;;;;;5.90;3.42;;;41.60;62.10;;;;;;5095380;28;20130;-75
2022/08/14 11:27:38;;;;;;;4.35;3.10;;;41.80;61.70;;;;;;5095289;28;20484;-74
2022/08/14 11:30:07;;;;;;;5.03;3.38;;;45.10;61.10;;;;;;5095584;28;20571;-75
2022/08/14 11:32:35;;;;;;;5.55;3.38;;;47.80;59.50;;;;;;5095109;28;20075;-75
2022/08/14 11:35:02;;;;;;;5.25;3.13;;;46.10;57.60;;;;;;5095435;28;20048;-75
2022/08/14 11:37:32;;;;;;;4.10;3.35;;;47.10;57.10;;;;;;5095483;28;20047;-75
2022/08/14 11:40:02;;;;;;;5.82;3.20;;;49.60;56.90;;;;;;5095671;28;20048;-75
2022/08/14 11:42:29;;;;;;;3.72;3.08;;;50.20;55.80;;;;;;5095429;28;20044;-76
2022/08/14 11:45:02;;;;;;;4.82;3.08;;;50.20;56.10;;;;;;5094901;28;20058;-75
2022/08/14 11:47:31;;;;;;;6.15;3.00;;;50.70;53.80;;;;;;5093821;28;20546;-75
2022/08/14 11:49:58;;;;;;;5.15;3.08;;;49.70;53.70;;;;;;5095528;28;20044;-75
2022/08/14 11:52:33;;;;;;;5.57;3.03;;;45.40;54.50;;;;;;5094178;28;20051;-75
2022/08/14 11:54:59;;;;;;;5.53;3.03;;;46.90;54.50;;;;;;5095448;28;20042;-75
2022/08/14 11:57:25;;;;;;;7.53;3.30;;;47.70;54.60;;;;;;5095284;28;20044;-76
2022/08/14 12:00:04;;;;;;;4.70;3.00;;;48.60;54.70;;;;;;5095106;28;20079;-75
2022/08/14 12:02:30;;;;;;;7.43;3.10;;;48.60;53.90;;;;;;5095054;28;20044;-75
2022/08/14 12:04:55;;;;;;;4.97;3.13;;;42.90;54.60;;;;;;5094734;28;20044;-75
2022/08/14 12:07:21;;;;;;;4.70;3.20;;;41.60;57.00;;;;;;5094630;28;20088;-75
2022/08/14 12:09:52;;;;;;;3.97;3.00;;;42.50;57.10;;;;;;5094776;28;20092;-74
2022/08/14 12:12:26;;;;;;;4.47;3.08;;;42.40;56.90;;;;;;5110457;28;20060;-74
2022/08/14 12:14:58;;;;;;;4.47;3.03;;;44.90;56.40;;;;;;5094714;28;20047;-75
2022/08/14 12:17:29;;;;;;;4.95;3.00;;;45.30;55.50;;;;;;5094641;28;20052;-75
2022/08/14 12:19:57;;;;;;;4.22;3.40;;;44.60;55.20;;;;;;5094590;28;20061;-74
2022/08/14 12:22:34;;;;;;;4.65;3.50;;;42.80;55.00;;;;;;5094662;28;20054;-74
2022/08/14 12:25:00;;;;;;;4.88;3.65;;;41.80;57.30;;;;;;5094465;28;20327;-74
2022/08/14 12:27:56;;;;;;;6.30;3.60;;;42.90;57.30;;;;;;5093540;28;20434;-75
2022/08/14 12:30:42;;;;;;;6.28;3.40;;;42.50;56.40;;;;;;5077698;28;20044;-74
2022/08/14 12:33:25;;;;;;;6.00;3.45;;;42.10;56.00;;;;;;5092082;28;20083;-74
2022/08/14 12:35:53;;;;;;;6.13;3.50;;;38.30;58.60;;;;;;5093167;28;20056;-75
2022/08/14 12:38:36;;;;;;;6.38;3.92;;;36.80;60.10;;;;;;5094167;28;20477;-75
2022/08/14 12:41:07;;;;;;;4.50;3.70;;;36.30;61.70;;;;;;5058303;28;20109;-75
2022/08/14 12:47:41;;;;;;;6.18;3.95;;;35.20;62.80;;;;;;5094379;28;20089;-76
2022/08/14 12:50:08;;;;;;;6.43;3.88;;;34.90;63.30;;;;;;5094493;28;20144;-76
2022/08/14 12:57:01;;;;;;;6.07;3.88;;;34.00;64.60;;;;;;5093841;28;20039;-76
2022/08/14 12:59:32;;;;;;;5.63;4.00;;;33.90;64.70;;;;;;5093903;28;20047;-77
2022/08/14 13:01:59;;;;;;;6.32;4.10;;;33.40;65.10;;;;;;5094225;28;20051;-76
2022/08/14 13:08:06;;;;;;;8.20;4.10;;;33.10;66.80;;;;;;5093707;28;20090;-75
2022/08/14 13:10:33;;;;;;;6.50;4.45;;;32.70;67.40;;;;;;5093434;28;20476;-75
2022/08/14 13:17:02;;;;;;;7.13;4.28;;;32.90;66.60;;;;;;5093512;28;20035;-76
2022/08/14 13:23:09;;;;;;;6.63;4.30;;;33.10;66.50;;;;;;5093296;28;20423;-78
2022/08/14 13:25:39;;;;;;;8.07;4.72;;;32.20;67.20;;;;;;5075115;28;20404;-79
2022/08/14 13:28:05;;;;;;;7.45;4.85;;;32.20;67.80;;;;;;5094111;28;20317;-78